createdAt,value
2022-12-23T00:00:41.462Z,58.53
2022-12-23T00:03:09.612Z,60.17
2022-12-23T00:05:38.502Z,65.65
2022-12-23T00:08:10.012Z,73.00
2022-12-23T00:10:40.853Z,63.45
2022-12-23T00:13:27.855Z,72.40
2022-12-23T00:16:13.200Z,75.12
2022-12-23T00:18:41.332Z,69.22
2022-12-23T00:21:12.251Z,60.55
2022-12-23T00:23:42.930Z,61.95
2022-12-23T00:26:19.199Z,73.97
2022-12-23T00:28:46.385Z,65.97
2022-12-23T00:31:14.187Z,71.93
2022-12-23T00:33:44.092Z,70.10
2022-12-23T00:36:17.861Z,70.32
2022-12-23T00:39:04.049Z,79.37
2022-12-23T00:41:49.841Z,74.43
2022-12-23T00:44:17.456Z,76.32
2022-12-23T00:46:44.608Z,67.32
2022-12-23T00:49:32.181Z,73.62
2022-12-23T00:52:02.227Z,67.72
2022-12-23T00:54:29.526Z,73.57
2022-12-23T00:56:57.551Z,78.65
2022-12-23T00:59:25.132Z,71.00
2022-12-23T01:02:11.074Z,62.72
2022-12-23T01:04:59.359Z,66.82
2022-12-23T01:07:26.449Z,67.72
2022-12-23T01:09:55.004Z,72.95
2022-12-23T01:12:24.846Z,62.30
2022-12-23T01:14:52.548Z,60.38
2022-12-23T01:17:21.036Z,54.15
2022-12-23T01:19:49.650Z,61.05
2022-12-23T01:22:16.729Z,53.00
2022-12-23T01:24:44.092Z,54.38
2022-12-23T01:27:11.121Z,58.03
2022-12-23T01:29:38.242Z,54.63
2022-12-23T01:32:05.785Z,59.97
2022-12-23T01:34:37.036Z,52.47
2022-12-23T01:37:05.452Z,47.95
2022-12-23T01:39:32.915Z,55.75
2022-12-23T01:42:18.759Z,56.50
2022-12-23T01:45:03.139Z,49.22
2022-12-23T01:47:38.969Z,53.40
2022-12-23T01:50:28.152Z,56.30
2022-12-23T01:52:55.832Z,50.00
2022-12-23T01:55:26.737Z,52.22
2022-12-23T01:57:56.693Z,61.05
2022-12-23T02:00:42.495Z,64.70
2022-12-23T02:03:28.492Z,59.50
2022-12-23T02:06:16.980Z,58.95
2022-12-23T02:09:02.824Z,52.45
2022-12-23T02:11:54.078Z,51.65
2022-12-23T02:15:02.239Z,66.82
2022-12-23T02:17:44.289Z,62.13
2022-12-23T02:20:17.428Z,78.53
2022-12-23T02:23:17.357Z,99.95
2022-12-23T02:25:47.761Z,169.00
2022-12-23T02:28:50.452Z,161.00
2022-12-23T02:31:20.657Z,186.90
2022-12-23T02:33:47.701Z,112.47
2022-12-23T02:36:17.600Z,78.85
2022-12-23T02:38:56.685Z,268.27
2022-12-23T02:41:36.933Z,179.20
2022-12-23T02:44:10.298Z,149.50
2022-12-23T02:46:49.169Z,292.70
2022-12-23T02:49:32.445Z,334.10
2022-12-23T02:52:04.989Z,181.10
2022-12-23T02:54:42.672Z,122.15
2022-12-23T02:57:12.865Z,303.80
2022-12-23T02:59:44.778Z,285.17
2022-12-23T03:02:12.096Z,233.13
2022-12-23T03:04:40.500Z,330.95
2022-12-23T03:07:18.798Z,333.40
2022-12-23T03:10:08.572Z,112.22
2022-12-23T03:13:08.047Z,239.75
2022-12-23T03:16:17.360Z,120.55
2022-12-23T03:18:50.616Z,310.67
2022-12-23T03:21:22.248Z,92.80
2022-12-23T03:23:56.735Z,291.12
2022-12-23T03:26:37.048Z,215.80
2022-12-23T03:29:15.544Z,157.68
2022-12-23T03:31:45.612Z,249.02
2022-12-23T03:34:19.501Z,211.57
2022-12-23T03:39:32.303Z,237.00
2022-12-23T03:42:05.981Z,135.03
2022-12-23T03:44:37.722Z,250.52
2022-12-23T03:47:11.850Z,86.90
2022-12-23T03:49:49.149Z,139.65
2022-12-23T03:52:22.064Z,207.95
2022-12-23T03:54:57.957Z,199.90
2022-12-23T03:57:55.524Z,129.12
2022-12-23T04:00:22.722Z,241.88
2022-12-23T04:03:19.546Z,94.28
2022-12-23T04:05:54.067Z,100.18
2022-12-23T04:08:33.224Z,155.63
2022-12-23T04:11:01.801Z,248.40
2022-12-23T04:13:30.363Z,73.65
2022-12-23T04:15:59.524Z,211.52
2022-12-23T04:18:27.067Z,230.20
2022-12-23T04:20:54.543Z,155.65
2022-12-23T04:23:21.719Z,221.45
2022-12-23T04:25:48.862Z,136.12
2022-12-23T04:28:18.235Z,167.00
2022-12-23T04:30:45.449Z,147.73
2022-12-23T04:33:12.915Z,129.12
2022-12-23T04:35:40.745Z,204.93
2022-12-23T04:38:08.170Z,175.30
2022-12-23T04:40:35.244Z,247.35
2022-12-23T04:43:02.690Z,174.87
2022-12-23T04:45:29.774Z,53.20
2022-12-23T04:47:56.900Z,160.93
2022-12-23T04:50:24.279Z,209.30
2022-12-23T04:52:51.407Z,108.25
2022-12-23T04:55:18.576Z,102.70
2022-12-23T04:57:45.925Z,155.20
2022-12-23T05:00:13.548Z,185.60
2022-12-23T05:02:40.671Z,116.95
2022-12-23T05:05:08.375Z,208.38
2022-12-23T05:07:35.532Z,136.68
2022-12-23T05:10:02.571Z,237.57
2022-12-23T05:12:30.890Z,65.53
2022-12-23T05:14:58.122Z,121.57
2022-12-23T05:17:25.188Z,102.00
2022-12-23T05:19:52.578Z,184.57
2022-12-23T05:22:19.637Z,125.82
2022-12-23T05:24:47.214Z,91.85
2022-12-23T05:27:23.128Z,115.53
2022-12-23T05:29:54.149Z,142.87
2022-12-23T05:32:26.216Z,117.47
2022-12-23T05:34:53.530Z,149.57
2022-12-23T05:37:23.812Z,74.75
2022-12-23T05:39:51.368Z,59.90
2022-12-23T05:42:19.581Z,75.82
2022-12-23T05:44:47.403Z,96.50
2022-12-23T05:47:15.391Z,115.75
2022-12-23T05:49:42.674Z,35.97
2022-12-23T05:52:10.910Z,71.35
2022-12-23T05:54:39.234Z,111.30
2022-12-23T05:57:07.076Z,86.12
2022-12-23T05:59:34.240Z,65.75
2022-12-23T06:02:01.957Z,92.82
2022-12-23T06:04:29.684Z,59.83
2022-12-23T06:06:57.144Z,77.28
2022-12-23T06:09:24.325Z,43.72
2022-12-23T06:11:52.743Z,137.07
2022-12-23T06:14:25.148Z,144.50
2022-12-23T06:16:56.231Z,213.10
2022-12-23T06:19:23.400Z,173.10
2022-12-23T06:21:51.504Z,160.70
2022-12-23T06:24:19.949Z,180.20
2022-12-23T06:26:50.817Z,90.70
2022-12-23T06:29:21.591Z,160.45
2022-12-23T06:31:51.207Z,166.18
2022-12-23T06:34:18.603Z,118.35
2022-12-23T06:36:48.320Z,194.25
2022-12-23T06:39:17.604Z,218.07
2022-12-23T06:41:47.582Z,107.82
2022-12-23T06:44:15.250Z,110.07
2022-12-23T06:46:44.936Z,231.70
2022-12-23T06:49:14.985Z,54.25
2022-12-23T06:51:42.599Z,105.87
2022-12-23T06:54:12.640Z,156.15
2022-12-23T06:56:40.742Z,134.85
2022-12-23T06:59:09.989Z,207.82
2022-12-23T07:01:37.715Z,68.18
2022-12-23T07:04:05.266Z,135.85
2022-12-23T07:06:40.343Z,156.75
2022-12-23T07:09:07.971Z,100.57
2022-12-23T07:11:36.892Z,91.40
2022-12-23T07:14:07.396Z,223.62
2022-12-23T07:16:35.973Z,33.90
2022-12-23T07:19:04.549Z,138.12
2022-12-23T07:21:31.758Z,151.07
2022-12-23T07:23:59.039Z,125.22
2022-12-23T07:26:26.549Z,133.70
2022-12-23T07:28:53.773Z,70.93
2022-12-23T07:31:21.047Z,142.43
2022-12-23T07:33:48.859Z,134.52
2022-12-23T07:36:16.021Z,58.45
2022-12-23T07:38:43.311Z,45.70
2022-12-23T07:41:10.757Z,46.30
2022-12-23T07:43:37.923Z,80.75
2022-12-23T07:46:10.823Z,75.65
2022-12-23T07:48:42.210Z,131.90
2022-12-23T07:51:10.767Z,147.80
2022-12-23T07:53:39.609Z,48.95
2022-12-23T07:56:10.222Z,187.98
2022-12-23T07:58:37.468Z,158.60
2022-12-23T08:01:08.113Z,141.23
2022-12-23T08:03:39.439Z,186.75
2022-12-23T08:06:09.751Z,140.07
2022-12-23T08:08:38.504Z,60.12
2022-12-23T08:11:09.050Z,110.18
2022-12-23T08:13:39.332Z,97.78
2022-12-23T08:16:07.794Z,83.35
2022-12-23T08:18:39.616Z,125.15
2022-12-23T08:21:14.880Z,196.50
2022-12-23T08:23:43.614Z,116.45
2022-12-23T08:26:35.783Z,243.60
2022-12-23T08:29:03.073Z,178.73
2022-12-23T08:31:32.054Z,46.53
2022-12-23T08:34:00.887Z,92.97
2022-12-23T08:36:33.443Z,145.50
2022-12-23T08:39:07.804Z,103.80
2022-12-23T08:41:42.331Z,99.55
2022-12-23T08:44:10.513Z,231.32
2022-12-23T08:46:38.427Z,106.87
2022-12-23T08:49:06.608Z,61.33
2022-12-23T08:51:35.122Z,203.25
2022-12-23T08:54:16.388Z,203.48
2022-12-23T08:56:44.787Z,267.37
2022-12-23T08:59:19.281Z,219.60
2022-12-23T09:01:48.751Z,182.48
2022-12-23T09:04:16.205Z,69.78
2022-12-23T09:06:44.461Z,186.10
2022-12-23T09:09:15.547Z,59.17
2022-12-23T09:11:43.110Z,198.55
2022-12-23T09:14:12.311Z,200.87
2022-12-23T09:16:39.791Z,172.73
2022-12-23T09:19:08.002Z,56.15
2022-12-23T09:21:36.204Z,237.75
2022-12-23T09:24:03.900Z,119.47
2022-12-23T09:26:31.746Z,86.50
2022-12-23T09:28:59.579Z,183.02
2022-12-23T09:31:32.564Z,101.80
2022-12-23T09:34:03.563Z,99.65
2022-12-23T09:36:30.996Z,159.20
2022-12-23T09:38:58.520Z,166.25
2022-12-23T09:41:34.803Z,132.52
2022-12-23T09:44:17.367Z,58.20
2022-12-23T09:46:52.939Z,126.90
2022-12-23T09:49:22.660Z,201.27
2022-12-23T09:51:52.560Z,127.95
2022-12-23T09:54:46.455Z,174.60
2022-12-23T09:57:36.474Z,110.93
2022-12-23T10:00:17.086Z,113.07
2022-12-23T10:02:54.015Z,158.30
2022-12-23T10:05:30.721Z,191.80
2022-12-23T10:08:15.476Z,69.93
2022-12-23T10:10:51.308Z,51.65
2022-12-23T10:13:35.658Z,35.67
2022-12-23T10:16:23.117Z,52.33
2022-12-23T10:18:58.113Z,68.05
2022-12-23T10:21:37.342Z,124.15
2022-12-23T10:24:25.597Z,144.55
2022-12-23T10:26:57.763Z,69.60
2022-12-23T10:29:31.821Z,150.55
2022-12-23T10:32:20.403Z,198.43
2022-12-23T10:35:01.189Z,113.12
2022-12-23T10:37:28.237Z,67.62
2022-12-23T10:40:14.447Z,100.75
2022-12-23T10:42:56.200Z,272.42
2022-12-23T10:45:49.117Z,105.72
2022-12-23T10:48:37.934Z,75.90
2022-12-23T10:51:31.529Z,138.37
2022-12-23T10:54:05.605Z,95.45
2022-12-23T10:56:33.301Z,69.75
2022-12-23T10:59:01.353Z,104.18
2022-12-23T11:01:32.321Z,198.30
2022-12-23T11:04:16.570Z,96.65
2022-12-23T11:07:10.785Z,96.90
2022-12-23T11:09:47.538Z,91.30
2022-12-23T11:12:15.522Z,147.30
2022-12-23T11:14:55.248Z,158.27
2022-12-23T11:17:26.470Z,116.20
2022-12-23T11:20:16.044Z,164.45
2022-12-23T11:23:30.163Z,87.85
2022-12-23T11:26:10.190Z,95.57
2022-12-23T11:28:40.073Z,159.93
2022-12-23T11:31:14.523Z,182.70
2022-12-23T11:36:14.018Z,131.65
2022-12-23T11:38:53.624Z,131.95
2022-12-23T11:41:24.156Z,136.73
2022-12-23T11:44:03.972Z,81.63
2022-12-23T11:46:34.016Z,106.10
2022-12-23T11:49:18.209Z,86.25
2022-12-23T11:51:49.172Z,137.82
2022-12-23T11:54:19.175Z,112.72
2022-12-23T11:56:51.511Z,184.95
2022-12-23T11:59:31.124Z,79.47
2022-12-23T12:02:14.921Z,123.75
2022-12-23T12:04:42.875Z,93.97
2022-12-23T12:07:14.442Z,89.13
2022-12-23T12:09:43.851Z,71.40
2022-12-23T12:12:21.121Z,120.50
2022-12-23T12:14:54.574Z,107.45
2022-12-23T12:17:25.216Z,86.28
2022-12-23T12:20:24.740Z,141.25
2022-12-23T12:22:59.662Z,135.82
2022-12-23T12:25:46.158Z,96.07
2022-12-23T12:28:48.853Z,100.53
2022-12-23T12:31:37.995Z,124.15
2022-12-23T12:34:20.627Z,149.35
2022-12-23T12:36:57.751Z,99.07
2022-12-23T12:39:32.612Z,79.12
2022-12-23T12:42:42.159Z,96.93
2022-12-23T12:45:23.433Z,74.07
2022-12-23T12:48:16.031Z,76.97
2022-12-23T12:51:27.794Z,65.05
2022-12-23T12:54:04.974Z,58.83
2022-12-23T12:56:50.154Z,63.97
2022-12-23T12:59:20.420Z,140.75
2022-12-23T13:02:06.883Z,84.97
2022-12-23T13:04:50.111Z,90.97
2022-12-23T13:08:03.938Z,73.70
2022-12-23T13:10:51.660Z,80.32
2022-12-23T13:13:27.331Z,88.68
2022-12-23T13:16:12.504Z,92.30
2022-12-23T13:19:07.371Z,88.50
2022-12-23T13:21:38.543Z,63.80
2022-12-23T13:24:19.485Z,70.43
2022-12-23T13:27:21.955Z,79.95
2022-12-23T13:30:15.538Z,75.10
2022-12-23T13:32:57.519Z,79.93
2022-12-23T13:35:28.054Z,78.47
2022-12-23T13:38:04.474Z,78.90
2022-12-23T13:40:59.965Z,73.12
2022-12-23T13:43:47.792Z,69.05
2022-12-23T13:46:41.271Z,66.18
2022-12-23T13:49:42.333Z,52.70
2022-12-23T13:52:20.630Z,66.50
2022-12-23T13:55:40.204Z,59.45
2022-12-23T13:58:15.201Z,85.85
2022-12-23T14:00:43.085Z,76.20
2022-12-23T14:03:12.686Z,73.55
2022-12-23T14:05:44.930Z,88.28
2022-12-23T14:08:18.760Z,65.93
2022-12-23T14:11:11.617Z,72.12
2022-12-23T14:13:44.866Z,69.60
2022-12-23T14:16:25.518Z,70.62
2022-12-23T14:19:05.152Z,74.97
2022-12-23T14:21:58.658Z,49.40
2022-12-23T14:24:35.876Z,53.50
2022-12-23T14:27:15.108Z,52.33
2022-12-23T14:29:48.546Z,57.47
2022-12-23T14:32:45.105Z,67.80
2022-12-23T14:35:26.188Z,87.45
2022-12-23T14:38:08.139Z,94.15
2022-12-23T14:40:38.165Z,86.43
2022-12-23T14:43:26.623Z,82.25
2022-12-23T14:46:30.856Z,69.47
2022-12-23T14:49:29.716Z,61.67
2022-12-23T14:51:51.084Z,78.55
2022-12-23T14:54:37.248Z,56.85
2022-12-23T14:57:17.481Z,57.15
2022-12-23T15:00:04.339Z,57.22
2022-12-23T15:02:36.872Z,53.17
2022-12-23T15:05:04.723Z,50.50
2022-12-23T15:07:42.512Z,59.63
2022-12-23T15:10:21.666Z,53.28
2022-12-23T15:12:55.948Z,67.43
2022-12-23T15:15:29.231Z,71.43
2022-12-23T15:18:11.866Z,78.70
2022-12-23T15:20:39.497Z,65.82
2022-12-23T15:23:14.599Z,61.28
2022-12-23T15:25:47.631Z,75.55
2022-12-23T15:28:22.089Z,92.62
2022-12-23T15:30:56.814Z,83.30
2022-12-23T15:36:31.413Z,76.37
2022-12-23T15:39:00.802Z,72.62
2022-12-23T15:41:28.454Z,69.62
2022-12-23T15:44:01.594Z,72.05
2022-12-23T15:46:31.683Z,67.85
2022-12-23T15:48:59.117Z,65.53
2022-12-23T15:52:05.099Z,58.97
2022-12-23T15:54:26.693Z,52.30
2022-12-23T15:56:56.404Z,60.83
2022-12-23T15:59:35.726Z,60.12
2022-12-23T16:02:49.754Z,68.12
2022-12-23T16:05:05.158Z,67.10
2022-12-23T16:07:35.869Z,60.47
2022-12-23T16:10:23.515Z,107.50
2022-12-23T16:12:51.691Z,85.62
2022-12-23T16:15:27.571Z,86.37
2022-12-23T16:18:19.156Z,103.03
2022-12-23T16:21:01.605Z,85.82
2022-12-23T16:23:34.952Z,98.45
2022-12-23T16:26:03.102Z,91.78
2022-12-23T16:28:39.587Z,110.05
2022-12-23T16:31:08.283Z,97.53
2022-12-23T16:33:41.728Z,103.82
2022-12-23T16:36:27.590Z,117.13
2022-12-23T16:39:14.890Z,91.18
2022-12-23T16:41:42.570Z,82.00
2022-12-23T16:44:09.655Z,82.53
2022-12-23T16:46:42.591Z,87.43
2022-12-23T16:49:20.240Z,62.10
2022-12-23T16:51:47.689Z,68.57
2022-12-23T16:54:19.637Z,73.75
2022-12-23T16:56:47.057Z,71.72
2022-12-23T16:59:14.572Z,62.25
2022-12-23T17:01:47.176Z,78.55
2022-12-23T17:04:15.167Z,63.40
2022-12-23T17:06:42.626Z,63.28
2022-12-23T17:09:11.326Z,67.20
2022-12-23T17:11:42.194Z,55.95
2022-12-23T17:14:24.545Z,56.60
2022-12-23T17:16:55.357Z,48.35
2022-12-23T17:19:28.796Z,53.97
2022-12-23T17:22:01.510Z,58.00
2022-12-23T17:24:29.900Z,58.55
2022-12-23T17:26:57.102Z,64.95
2022-12-23T17:29:24.360Z,70.00
2022-12-23T17:31:52.907Z,63.58
2022-12-23T17:34:24.049Z,68.35
2022-12-23T17:36:52.812Z,71.97
2022-12-23T17:39:22.044Z,71.18
2022-12-23T17:41:49.406Z,71.55
2022-12-23T17:44:18.047Z,70.90
2022-12-23T17:46:46.237Z,73.55
2022-12-23T17:49:13.757Z,76.70
2022-12-23T17:51:42.145Z,71.15
2022-12-23T17:54:20.986Z,77.93
2022-12-23T17:56:48.459Z,78.85
2022-12-23T17:59:15.581Z,79.47
2022-12-23T18:01:43.786Z,93.22
2022-12-23T18:04:18.617Z,82.25
2022-12-23T18:06:45.710Z,82.55
2022-12-23T18:09:13.144Z,80.82
2022-12-23T18:11:44.844Z,78.12
2022-12-23T18:14:19.815Z,81.10
2022-12-23T18:16:48.127Z,76.47
2022-12-23T18:19:18.436Z,63.28
2022-12-23T18:21:45.895Z,60.58
2022-12-23T18:24:13.888Z,94.50
2022-12-23T18:26:41.347Z,136.82
2022-12-23T18:29:08.395Z,204.45
2022-12-23T18:31:37.424Z,224.35
2022-12-23T18:34:04.779Z,376.15
2022-12-23T18:36:33.913Z,190.00
2022-12-23T18:39:01.249Z,306.40
2022-12-23T18:41:28.682Z,261.27
2022-12-23T18:43:55.858Z,225.48
2022-12-23T18:46:23.307Z,153.45
2022-12-23T18:48:51.665Z,270.55
2022-12-23T18:51:21.165Z,251.77
2022-12-23T18:53:48.876Z,277.00
2022-12-23T18:56:21.277Z,218.73
2022-12-23T18:58:48.840Z,202.85
2022-12-23T19:01:18.030Z,208.45
2022-12-23T19:03:46.495Z,147.13
2022-12-23T19:06:16.337Z,149.27
2022-12-23T19:08:44.514Z,194.48
2022-12-23T19:11:16.012Z,140.20
2022-12-23T19:13:44.580Z,180.05
2022-12-23T19:16:19.615Z,171.82
2022-12-23T19:18:48.020Z,155.73
2022-12-23T19:21:16.741Z,150.60
2022-12-23T19:23:44.304Z,120.35
2022-12-23T19:26:14.850Z,117.40
2022-12-23T19:28:42.274Z,164.25
2022-12-23T19:31:15.019Z,161.98
2022-12-23T19:33:45.383Z,179.12
2022-12-23T19:36:25.090Z,156.95
2022-12-23T19:38:53.033Z,167.00
2022-12-23T19:41:20.198Z,151.75
2022-12-23T19:43:47.487Z,169.18
2022-12-23T19:46:16.379Z,124.28
2022-12-23T19:48:43.907Z,138.15
2022-12-23T19:51:13.873Z,118.13
2022-12-23T19:53:42.370Z,123.25
2022-12-23T19:56:15.086Z,92.45
2022-12-23T19:58:43.927Z,85.35
2022-12-23T20:01:22.780Z,73.80
2022-12-23T20:03:51.906Z,76.47
2022-12-23T20:06:27.545Z,90.15
2022-12-23T20:09:00.224Z,77.20
2022-12-23T20:11:30.759Z,90.87
2022-12-23T20:13:59.776Z,94.65
2022-12-23T20:16:27.792Z,83.30
2022-12-23T20:18:55.840Z,83.82
2022-12-23T20:21:23.837Z,93.75
2022-12-23T20:23:54.106Z,71.87
2022-12-23T20:26:21.491Z,83.30
2022-12-23T20:28:48.927Z,79.05
2022-12-23T20:31:23.509Z,79.72
2022-12-23T20:33:52.364Z,66.57
2022-12-23T20:36:25.910Z,79.82
2022-12-23T20:38:53.659Z,80.10
2022-12-23T20:41:23.390Z,71.53
2022-12-23T20:44:23.340Z,76.07
2022-12-23T20:46:38.105Z,80.85
2022-12-23T20:49:05.227Z,77.60
2022-12-23T20:51:32.314Z,58.05
2022-12-23T20:53:59.889Z,48.67
2022-12-23T20:56:27.789Z,50.75
2022-12-23T20:58:55.200Z,54.28
2022-12-23T21:01:27.916Z,55.35
2022-12-23T21:03:56.891Z,42.95
2022-12-23T21:06:25.908Z,52.15
2022-12-23T21:08:55.750Z,45.12
2022-12-23T21:11:23.554Z,54.40
2022-12-23T21:13:51.226Z,46.42
2022-12-23T21:16:21.267Z,47.15
2022-12-23T21:18:52.628Z,51.60
2022-12-23T21:21:23.590Z,52.90
2022-12-23T21:23:50.773Z,52.45
2022-12-23T21:26:20.981Z,49.47
2022-12-23T21:28:50.718Z,53.85
2022-12-23T21:31:20.816Z,46.90
2022-12-23T21:33:50.074Z,49.05
2022-12-23T21:36:20.955Z,45.92
2022-12-23T21:38:49.426Z,43.53
2022-12-23T21:41:20.556Z,44.40
2022-12-23T21:43:48.369Z,46.00
2022-12-23T21:46:19.109Z,39.97
2022-12-23T21:48:47.677Z,44.55
2022-12-23T21:51:22.436Z,42.53
2022-12-23T21:53:54.449Z,44.20
2022-12-23T21:56:31.452Z,48.17
2022-12-23T21:59:04.599Z,45.20
2022-12-23T22:01:32.658Z,47.40
2022-12-23T22:04:00.143Z,45.10
2022-12-23T22:06:30.363Z,45.60
2022-12-23T22:08:58.531Z,41.53
2022-12-23T22:11:31.599Z,38.38
2022-12-23T22:14:00.101Z,48.65
2022-12-23T22:16:29.642Z,41.55
2022-12-23T22:18:59.096Z,46.65
2022-12-23T22:21:28.845Z,40.90
2022-12-23T22:23:57.276Z,36.30
2022-12-23T22:26:27.456Z,39.72
2022-12-23T22:28:55.996Z,43.92
2022-12-23T22:31:44.303Z,32.45
2022-12-23T22:34:29.701Z,40.33
2022-12-23T22:36:57.159Z,36.30
2022-12-23T22:39:24.273Z,39.10
2022-12-23T22:41:51.993Z,38.50
2022-12-23T22:44:20.378Z,42.60
2022-12-23T22:46:48.061Z,34.17
2022-12-23T22:49:15.755Z,40.42
2022-12-23T22:51:43.279Z,37.40
2022-12-23T22:54:10.362Z,33.30
2022-12-23T22:56:38.000Z,38.83
2022-12-23T22:59:06.380Z,39.97
2022-12-23T23:01:36.321Z,45.88
2022-12-23T23:04:04.306Z,43.15
2022-12-23T23:06:42.125Z,51.33
2022-12-23T23:09:14.376Z,58.50
2022-12-23T23:11:43.787Z,52.38
2022-12-23T23:14:12.127Z,54.97
2022-12-23T23:16:39.720Z,58.70
2022-12-23T23:19:09.158Z,54.17
2022-12-23T23:21:37.700Z,49.70
2022-12-23T23:24:05.600Z,80.30
2022-12-23T23:26:33.191Z,84.97
2022-12-23T23:29:00.407Z,66.15
2022-12-23T23:31:44.214Z,93.18
2022-12-23T23:34:12.563Z,56.72
2022-12-23T23:36:40.118Z,53.08
2022-12-23T23:39:09.965Z,66.72
2022-12-23T23:41:37.774Z,53.35
2022-12-23T23:44:05.028Z,48.40
2022-12-23T23:46:32.168Z,41.75
2022-12-23T23:49:00.201Z,44.58
2022-12-23T23:51:27.398Z,50.47
2022-12-23T23:53:54.565Z,42.10
2022-12-23T23:56:25.875Z,42.28
2022-12-23T23:58:53.971Z,38.90
